createdAt,value
2023-01-03T00:01:53.436Z,5.33
2023-01-03T00:04:21.943Z,4.40
2023-01-03T00:06:53.440Z,4.17
2023-01-03T00:09:24.863Z,3.77
2023-01-03T00:12:15.200Z,3.07
2023-01-03T00:14:44.516Z,4.13
2023-01-03T00:17:15.025Z,8.70
2023-01-03T00:19:44.907Z,5.60
2023-01-03T00:22:14.984Z,4.87
2023-01-03T00:24:44.245Z,3.10
2023-01-03T00:27:13.668Z,5.30
2023-01-03T00:29:41.657Z,4.70
2023-01-03T00:32:09.858Z,4.73
2023-01-03T00:34:37.111Z,4.70
2023-01-03T00:37:04.459Z,4.57
2023-01-03T00:39:31.632Z,3.00
2023-01-03T00:41:58.764Z,3.57
2023-01-03T00:44:25.925Z,2.20
2023-01-03T00:46:53.391Z,5.87
2023-01-03T00:49:20.675Z,5.60
2023-01-03T00:51:48.013Z,4.33
2023-01-03T00:54:16.769Z,6.00
2023-01-03T00:56:47.235Z,3.73
2023-01-03T00:59:17.457Z,3.30
2023-01-03T01:01:54.692Z,2.63
2023-01-03T01:04:31.005Z,4.63
2023-01-03T01:07:03.165Z,5.07
2023-01-03T01:09:36.186Z,3.70
2023-01-03T01:12:06.895Z,4.90
2023-01-03T01:14:34.046Z,3.77
2023-01-03T01:17:08.348Z,3.50
2023-01-03T01:19:43.360Z,1.50
2023-01-03T01:22:12.647Z,2.67
2023-01-03T01:24:40.759Z,3.47
2023-01-03T01:27:08.561Z,2.60
2023-01-03T01:29:56.138Z,3.97
2023-01-03T01:32:23.596Z,3.67
2023-01-03T01:34:50.711Z,1.70
2023-01-03T01:37:17.918Z,3.87
2023-01-03T01:39:45.030Z,3.93
2023-01-03T01:42:32.853Z,1.77
2023-01-03T01:45:05.728Z,4.73
2023-01-03T01:47:59.775Z,2.40
2023-01-03T01:50:53.218Z,1.80
2023-01-03T01:53:29.712Z,3.47
2023-01-03T01:56:27.841Z,3.90
2023-01-03T01:58:55.836Z,2.27
2023-01-03T02:01:25.262Z,1.87
2023-01-03T02:04:24.259Z,1.90
2023-01-03T02:06:53.135Z,5.17
2023-01-03T02:09:20.359Z,1.77
2023-01-03T02:12:49.302Z,4.07
2023-01-03T02:16:04.399Z,4.07
2023-01-03T02:19:30.994Z,5.33
2023-01-03T02:22:58.205Z,3.30
2023-01-03T02:26:15.884Z,3.87
2023-01-03T02:29:36.721Z,4.30
2023-01-03T02:32:16.881Z,4.57
2023-01-03T02:35:08.891Z,3.30
2023-01-03T02:38:04.945Z,2.80
2023-01-03T02:40:43.263Z,3.60
2023-01-03T02:43:41.552Z,3.63
2023-01-03T02:46:40.528Z,7.90
2023-01-03T02:49:49.563Z,2.90
2023-01-03T02:52:29.037Z,4.93
2023-01-03T02:55:28.410Z,3.07
2023-01-03T02:58:17.455Z,4.43
2023-01-03T03:00:51.726Z,4.83
2023-01-03T03:03:27.166Z,2.63
2023-01-03T03:06:06.790Z,2.60
2023-01-03T03:08:34.307Z,5.00
2023-01-03T03:11:19.987Z,5.60
2023-01-03T03:14:25.321Z,4.87
2023-01-03T03:16:55.832Z,5.27
2023-01-03T03:19:47.715Z,2.87
2023-01-03T03:23:12.514Z,3.13
2023-01-03T03:26:00.284Z,3.37
2023-01-03T03:28:36.440Z,5.70
2023-01-03T03:31:39.348Z,7.63
2023-01-03T03:34:31.412Z,4.97
2023-01-03T03:37:19.828Z,7.07
2023-01-03T03:40:07.040Z,2.70
2023-01-03T03:43:08.320Z,5.13
2023-01-03T03:46:07.381Z,3.30
2023-01-03T03:49:19.425Z,4.37
2023-01-03T03:51:49.654Z,8.87
2023-01-03T03:54:21.549Z,5.40
2023-01-03T03:57:17.907Z,6.57
2023-01-03T03:59:53.656Z,6.23
2023-01-03T04:02:22.595Z,4.67
2023-01-03T04:04:59.417Z,5.40
2023-01-03T04:07:28.936Z,6.47
2023-01-03T04:09:56.149Z,3.87
2023-01-03T04:12:23.261Z,6.60
2023-01-03T04:14:50.379Z,3.40
2023-01-03T04:17:17.653Z,5.70
2023-01-03T04:19:44.857Z,6.63
2023-01-03T04:22:11.953Z,7.17
2023-01-03T04:24:39.046Z,11.27
2023-01-03T04:27:06.213Z,7.03
2023-01-03T04:29:38.923Z,3.70
2023-01-03T04:32:08.301Z,6.67
2023-01-03T04:34:35.776Z,5.87
2023-01-03T04:37:03.151Z,7.27
2023-01-03T04:39:31.559Z,3.67
2023-01-03T04:41:58.770Z,7.27
2023-01-03T04:44:27.833Z,5.47
2023-01-03T04:46:58.789Z,7.93
2023-01-03T04:49:25.909Z,6.27
2023-01-03T04:51:53.061Z,5.90
2023-01-03T04:54:20.178Z,4.93
2023-01-03T04:56:47.414Z,4.93
2023-01-03T04:59:14.551Z,6.67
2023-01-03T05:01:51.997Z,5.37
2023-01-03T05:04:19.651Z,7.67
2023-01-03T05:06:46.715Z,7.17
2023-01-03T05:09:13.915Z,8.00
2023-01-03T05:11:43.354Z,3.27
2023-01-03T05:14:14.288Z,9.67
2023-01-03T05:16:41.922Z,2.63
2023-01-03T05:19:09.019Z,9.33
2023-01-03T05:21:54.576Z,5.43
2023-01-03T05:24:39.989Z,5.57
2023-01-03T05:27:07.318Z,8.97
2023-01-03T05:29:36.678Z,9.73
2023-01-03T05:32:04.138Z,6.10
2023-01-03T05:34:31.278Z,9.90
2023-01-03T05:36:58.323Z,3.87
2023-01-03T05:39:25.546Z,6.80
2023-01-03T05:42:01.806Z,6.53
2023-01-03T05:44:34.425Z,4.57
2023-01-03T05:47:04.854Z,4.27
2023-01-03T05:49:32.018Z,7.80
2023-01-03T05:51:59.157Z,7.00
2023-01-03T05:54:26.151Z,6.57
2023-01-03T05:56:53.194Z,8.37
2023-01-03T05:59:21.165Z,4.20
2023-01-03T06:01:49.233Z,6.60
2023-01-03T06:04:16.475Z,10.60
2023-01-03T06:06:43.543Z,9.50
2023-01-03T06:09:11.052Z,5.07
2023-01-03T06:11:41.124Z,10.27
2023-01-03T06:14:08.170Z,7.47
2023-01-03T06:16:54.142Z,6.23
2023-01-03T06:19:21.372Z,11.30
2023-01-03T06:21:48.412Z,9.00
2023-01-03T06:24:15.451Z,9.03
2023-01-03T06:26:42.476Z,9.10
2023-01-03T06:29:09.630Z,6.77
2023-01-03T06:31:36.681Z,12.33
2023-01-03T06:34:04.573Z,7.23
2023-01-03T06:36:34.655Z,6.73
2023-01-03T06:39:02.134Z,10.70
2023-01-03T06:41:29.237Z,5.13
2023-01-03T06:43:56.618Z,8.93
2023-01-03T06:46:42.438Z,12.83
2023-01-03T06:49:35.940Z,6.23
2023-01-03T06:52:28.933Z,7.73
2023-01-03T06:54:56.073Z,8.93
2023-01-03T06:57:26.757Z,3.83
2023-01-03T06:59:55.772Z,10.13
2023-01-03T07:02:23.088Z,5.97
2023-01-03T07:04:50.521Z,10.90
2023-01-03T07:07:17.789Z,8.77
2023-01-03T07:09:45.066Z,5.80
2023-01-03T07:12:30.867Z,7.30
2023-01-03T07:15:00.089Z,9.40
2023-01-03T07:17:27.169Z,8.90
2023-01-03T07:19:54.342Z,10.57
2023-01-03T07:22:21.586Z,12.27
2023-01-03T07:24:48.683Z,5.60
2023-01-03T07:27:15.760Z,10.10
2023-01-03T07:29:43.086Z,4.93
2023-01-03T07:32:10.251Z,6.43
2023-01-03T07:34:37.413Z,11.23
2023-01-03T07:37:04.555Z,12.17
2023-01-03T07:39:31.646Z,9.90
2023-01-03T07:42:17.519Z,15.77
2023-01-03T07:44:44.599Z,13.53
2023-01-03T07:47:11.757Z,5.63
2023-01-03T07:49:38.893Z,10.43
2023-01-03T07:52:05.911Z,12.83
2023-01-03T07:54:32.995Z,7.23
2023-01-03T07:57:00.140Z,16.33
2023-01-03T07:59:27.291Z,10.73
2023-01-03T08:01:54.566Z,13.87
2023-01-03T08:04:22.092Z,13.57
2023-01-03T08:06:49.230Z,11.17
2023-01-03T08:09:35.026Z,14.63
2023-01-03T08:12:20.874Z,11.43
2023-01-03T08:14:48.114Z,9.10
2023-01-03T08:17:15.235Z,19.00
2023-01-03T08:19:45.655Z,15.70
2023-01-03T08:22:13.072Z,16.57
2023-01-03T08:24:40.164Z,10.87
2023-01-03T08:27:07.265Z,11.40
2023-01-03T08:29:37.080Z,8.70
2023-01-03T08:32:07.708Z,7.93
2023-01-03T08:34:38.686Z,8.20
2023-01-03T08:37:10.400Z,9.83
2023-01-03T08:39:55.949Z,11.50
2023-01-03T08:42:24.114Z,10.63
2023-01-03T08:45:01.631Z,10.43
2023-01-03T08:47:30.458Z,9.87
2023-01-03T08:49:59.024Z,5.97
2023-01-03T08:52:29.035Z,10.63
2023-01-03T08:55:00.226Z,12.70
2023-01-03T08:57:27.564Z,8.30
2023-01-03T08:59:54.593Z,11.37
2023-01-03T09:02:22.069Z,7.40
2023-01-03T09:04:49.249Z,8.87
2023-01-03T09:07:16.255Z,4.67
2023-01-03T09:09:43.432Z,8.27
2023-01-03T09:12:10.499Z,6.37
2023-01-03T09:14:37.564Z,8.50
2023-01-03T09:17:04.603Z,5.90
2023-01-03T09:19:31.826Z,10.07
2023-01-03T09:21:58.934Z,5.00
2023-01-03T09:24:26.079Z,8.33
2023-01-03T09:26:54.906Z,10.03
2023-01-03T09:29:22.944Z,8.27
2023-01-03T09:31:51.494Z,7.73
2023-01-03T09:34:19.301Z,3.70
2023-01-03T09:36:46.442Z,7.67
2023-01-03T09:39:14.414Z,3.13
2023-01-03T09:41:42.893Z,7.43
2023-01-03T09:44:11.024Z,10.37
2023-01-03T09:46:38.747Z,6.27
2023-01-03T09:49:07.381Z,6.97
2023-01-03T09:52:03.090Z,8.17
2023-01-03T09:54:59.393Z,4.80
2023-01-03T09:57:54.889Z,6.50
2023-01-03T10:01:01.839Z,2.70
2023-01-03T10:04:26.216Z,7.97
2023-01-03T10:07:13.729Z,6.13
2023-01-03T10:10:37.538Z,7.10
2023-01-03T10:14:03.625Z,5.70
2023-01-03T10:17:04.746Z,8.40
2023-01-03T10:20:21.392Z,5.13
2023-01-03T10:22:49.910Z,6.47
2023-01-03T10:25:23.349Z,9.67
2023-01-03T10:27:59.873Z,11.30
2023-01-03T10:31:08.337Z,6.23
2023-01-03T10:33:49.864Z,6.13
2023-01-03T10:36:20.704Z,7.17
2023-01-03T10:38:52.919Z,7.03
2023-01-03T10:41:44.915Z,10.43
2023-01-03T10:44:32.723Z,9.10
2023-01-03T10:47:16.116Z,4.53
2023-01-03T10:49:46.996Z,9.63
2023-01-03T10:52:24.127Z,6.10
2023-01-03T10:54:56.131Z,6.90
2023-01-03T10:57:46.240Z,5.93
2023-01-03T11:00:33.242Z,7.87
2023-01-03T11:03:25.385Z,7.43
2023-01-03T11:06:01.371Z,11.33
2023-01-03T11:08:57.277Z,12.27
2023-01-03T11:11:41.035Z,7.00
2023-01-03T11:14:24.905Z,11.87
2023-01-03T11:17:05.756Z,8.33
2023-01-03T11:19:34.857Z,7.37
2023-01-03T11:22:43.353Z,7.83
2023-01-03T11:25:53.011Z,9.17
2023-01-03T11:29:33.275Z,11.33
2023-01-03T11:32:43.818Z,5.03
2023-01-03T11:35:32.049Z,8.30
2023-01-03T11:38:49.845Z,9.10
2023-01-03T11:41:33.462Z,10.30
2023-01-03T11:44:32.802Z,9.70
2023-01-03T11:47:56.611Z,7.47
2023-01-03T11:50:55.038Z,8.93
2023-01-03T11:53:49.475Z,7.67
2023-01-03T11:56:36.501Z,12.10
2023-01-03T11:59:28.014Z,5.77
2023-01-03T12:02:54.372Z,8.60
2023-01-03T12:05:59.623Z,8.43
2023-01-03T12:09:21.244Z,8.30
2023-01-03T12:12:51.603Z,10.37
2023-01-03T12:15:46.499Z,8.50
2023-01-03T12:18:51.496Z,6.90
2023-01-03T12:21:57.139Z,9.77
2023-01-03T12:25:06.028Z,4.73
2023-01-03T12:27:38.367Z,4.50
2023-01-03T12:31:10.511Z,9.03
2023-01-03T12:34:08.816Z,8.50
2023-01-03T12:37:11.740Z,4.33
2023-01-03T12:40:17.341Z,4.93
2023-01-03T12:43:09.183Z,6.77
2023-01-03T12:46:18.404Z,8.00
2023-01-03T12:49:24.113Z,7.87
2023-01-03T12:51:51.229Z,6.80
2023-01-03T12:54:57.796Z,7.07
2023-01-03T12:58:01.403Z,5.97
2023-01-03T13:01:04.718Z,11.40
2023-01-03T13:03:52.930Z,7.67
2023-01-03T13:06:23.740Z,13.00
2023-01-03T13:09:37.611Z,6.50
2023-01-03T13:12:27.798Z,9.87
2023-01-03T13:15:22.950Z,6.03
2023-01-03T13:17:50.612Z,6.53
2023-01-03T13:20:29.684Z,11.90
2023-01-03T13:22:59.893Z,4.57
2023-01-03T13:25:28.880Z,8.60
2023-01-03T13:28:08.927Z,10.50
2023-01-03T13:30:38.644Z,3.53
2023-01-03T13:33:11.797Z,5.57
2023-01-03T13:35:44.875Z,9.67
2023-01-03T13:38:39.046Z,5.97
2023-01-03T13:41:36.661Z,5.10
2023-01-03T13:44:23.312Z,6.37
2023-01-03T13:46:52.257Z,5.40
2023-01-03T13:49:26.562Z,3.73
2023-01-03T13:51:59.116Z,8.73
2023-01-03T13:54:58.811Z,5.57
2023-01-03T13:57:37.565Z,6.70
2023-01-03T14:00:20.229Z,7.87
2023-01-03T14:02:59.098Z,5.10
2023-01-03T14:05:54.093Z,9.00
2023-01-03T14:08:56.786Z,6.00
2023-01-03T14:12:03.554Z,7.53
2023-01-03T14:14:39.509Z,4.03
2023-01-03T14:17:20.281Z,9.17
2023-01-03T14:19:56.268Z,3.87
2023-01-03T14:22:36.879Z,6.10
2023-01-03T14:25:04.590Z,8.07
2023-01-03T14:27:41.339Z,8.93
2023-01-03T14:30:30.927Z,12.07
2023-01-03T14:32:59.205Z,8.93
2023-01-03T14:35:40.611Z,7.70
2023-01-03T14:38:29.573Z,12.50
2023-01-03T14:40:58.760Z,6.10
2023-01-03T14:43:33.907Z,6.23
2023-01-03T14:46:07.496Z,10.17
2023-01-03T14:48:34.603Z,14.13
2023-01-03T14:51:07.425Z,15.27
2023-01-03T14:53:46.806Z,11.37
2023-01-03T14:56:14.126Z,15.20
2023-01-03T14:58:47.241Z,16.70
2023-01-03T15:01:15.454Z,19.70
2023-01-03T15:03:48.956Z,19.33
2023-01-03T15:06:32.342Z,7.50
2023-01-03T15:09:18.995Z,16.13
2023-01-03T15:12:01.921Z,7.97
2023-01-03T15:14:34.387Z,7.63
2023-01-03T15:17:10.111Z,10.30
2023-01-03T15:19:41.619Z,15.77
2023-01-03T15:22:40.638Z,8.17
2023-01-03T15:25:43.398Z,11.50
2023-01-03T15:28:49.424Z,19.20
2023-01-03T15:31:37.194Z,15.13
2023-01-03T15:34:28.610Z,14.83
2023-01-03T15:37:21.881Z,11.70
2023-01-03T15:39:54.214Z,7.93
2023-01-03T15:42:56.174Z,14.97
2023-01-03T15:45:37.777Z,14.43
2023-01-03T15:48:16.755Z,12.33
2023-01-03T15:50:51.208Z,5.33
2023-01-03T15:53:43.807Z,12.63
2023-01-03T15:56:29.828Z,3.83
2023-01-03T15:58:57.642Z,7.87
2023-01-03T16:01:25.763Z,9.30
2023-01-03T16:03:53.721Z,9.83
2023-01-03T16:06:21.295Z,16.83
2023-01-03T16:08:48.547Z,14.97
2023-01-03T16:11:31.493Z,10.43
2023-01-03T16:14:06.860Z,10.20
2023-01-03T16:16:40.358Z,11.03
2023-01-03T16:19:15.032Z,13.77
2023-01-03T16:21:51.582Z,13.00
2023-01-03T16:24:29.210Z,15.27
2023-01-03T16:26:57.395Z,17.67
2023-01-03T16:29:24.691Z,14.33
2023-01-03T16:31:51.986Z,11.93
2023-01-03T16:34:26.375Z,8.37
2023-01-03T16:36:57.426Z,7.07
2023-01-03T16:39:27.387Z,7.53
2023-01-03T16:42:13.681Z,8.60
2023-01-03T16:44:46.536Z,7.77
2023-01-03T16:47:24.470Z,10.57
2023-01-03T16:50:01.736Z,9.40
2023-01-03T16:52:47.548Z,12.10
2023-01-03T16:55:40.999Z,15.20
2023-01-03T16:58:15.491Z,12.37
2023-01-03T17:00:42.543Z,12.47
2023-01-03T17:03:09.730Z,15.33
2023-01-03T17:05:38.648Z,21.03
2023-01-03T17:08:29.303Z,10.77
2023-01-03T17:10:58.438Z,17.93
2023-01-03T17:13:45.042Z,10.37
2023-01-03T17:16:20.321Z,12.03
2023-01-03T17:18:48.297Z,14.00
2023-01-03T17:21:34.847Z,19.00
2023-01-03T17:24:24.624Z,12.70
2023-01-03T17:27:04.276Z,8.77
2023-01-03T17:29:31.671Z,7.83
2023-01-03T17:31:58.794Z,11.30
2023-01-03T17:34:30.127Z,11.97
2023-01-03T17:37:00.420Z,8.53
2023-01-03T17:39:28.305Z,8.07
2023-01-03T17:42:15.957Z,8.13
2023-01-03T17:45:06.764Z,12.83
2023-01-03T17:48:17.330Z,16.73
2023-01-03T17:50:45.012Z,13.20
2023-01-03T17:53:17.017Z,11.40
2023-01-03T17:55:46.386Z,10.90
2023-01-03T17:58:33.221Z,11.57
2023-01-03T18:01:01.350Z,8.93
2023-01-03T18:03:30.260Z,13.30
2023-01-03T18:05:58.398Z,12.37
2023-01-03T18:08:26.078Z,12.77
2023-01-03T18:10:53.613Z,7.00
2023-01-03T18:13:37.503Z,12.27
2023-01-03T18:16:05.104Z,14.60
2023-01-03T18:18:32.824Z,11.90
2023-01-03T18:20:59.995Z,12.67
2023-01-03T18:23:36.396Z,10.43
2023-01-03T18:26:11.078Z,15.90
2023-01-03T18:28:38.110Z,18.33
2023-01-03T18:31:07.072Z,19.60
2023-01-03T18:33:35.854Z,13.40
2023-01-03T18:36:02.938Z,13.73
2023-01-03T18:38:35.493Z,13.57
2023-01-03T18:41:05.789Z,13.90
2023-01-03T18:43:34.081Z,13.77
2023-01-03T18:46:01.295Z,17.03
2023-01-03T18:48:28.441Z,17.13
2023-01-03T18:50:59.504Z,13.80
2023-01-03T18:53:31.979Z,17.77
2023-01-03T18:56:00.429Z,18.47
2023-01-03T18:58:37.646Z,14.07
2023-01-03T19:01:07.693Z,14.60
2023-01-03T19:03:39.360Z,17.83
2023-01-03T19:06:30.736Z,17.97
2023-01-03T19:09:05.005Z,19.13
2023-01-03T19:11:37.728Z,10.93
2023-01-03T19:14:05.183Z,13.77
2023-01-03T19:16:36.536Z,11.53
2023-01-03T19:19:06.811Z,12.27
2023-01-03T19:21:41.828Z,13.00
2023-01-03T19:24:39.254Z,13.27
2023-01-03T19:27:25.461Z,18.30
2023-01-03T19:29:53.323Z,15.80
2023-01-03T19:32:28.190Z,17.77
2023-01-03T19:34:55.410Z,16.23
2023-01-03T19:37:23.470Z,11.50
2023-01-03T19:39:51.302Z,17.10
2023-01-03T19:42:47.446Z,15.43
2023-01-03T19:45:32.520Z,15.90
2023-01-03T19:48:17.140Z,12.30
2023-01-03T19:50:44.891Z,15.27
2023-01-03T19:53:12.681Z,19.43
2023-01-03T19:55:47.603Z,17.13
2023-01-03T19:58:36.412Z,17.50
2023-01-03T20:01:04.185Z,14.57
2023-01-03T20:03:39.819Z,16.63
2023-01-03T20:06:12.406Z,14.67
2023-01-03T20:08:39.898Z,18.87
2023-01-03T20:11:22.723Z,20.07
2023-01-03T20:13:50.183Z,20.27
2023-01-03T20:16:18.397Z,19.53
2023-01-03T20:18:45.527Z,16.10
2023-01-03T20:21:32.316Z,13.93
2023-01-03T20:24:02.643Z,19.67
2023-01-03T20:26:33.416Z,16.80
2023-01-03T20:29:00.901Z,14.33
2023-01-03T20:31:28.766Z,19.90
2023-01-03T20:33:55.947Z,18.73
2023-01-03T20:36:40.196Z,16.57
2023-01-03T20:39:32.282Z,21.13
2023-01-03T20:42:03.490Z,21.80
2023-01-03T20:44:31.147Z,20.90
2023-01-03T20:46:59.010Z,21.03
2023-01-03T20:49:28.036Z,20.03
2023-01-03T20:51:55.363Z,30.97
2023-01-03T20:54:23.047Z,22.77
2023-01-03T20:56:50.124Z,19.00
2023-01-03T20:59:20.422Z,18.20
2023-01-03T21:01:48.999Z,22.90
2023-01-03T21:04:17.062Z,23.93
2023-01-03T21:06:46.472Z,21.17
2023-01-03T21:09:14.259Z,18.23
2023-01-03T21:11:41.436Z,26.27
2023-01-03T21:14:09.891Z,29.13
2023-01-03T21:16:42.615Z,29.10
2023-01-03T21:19:23.047Z,26.63
2023-01-03T21:21:54.033Z,25.60
2023-01-03T21:24:24.091Z,24.17
2023-01-03T21:26:51.751Z,21.87
2023-01-03T21:29:18.915Z,27.10
2023-01-03T21:31:46.339Z,19.80
2023-01-03T21:34:20.463Z,26.03
2023-01-03T21:36:48.384Z,26.30
2023-01-03T21:39:16.463Z,22.20
2023-01-03T21:42:12.957Z,23.87
2023-01-03T21:44:40.075Z,21.80
2023-01-03T21:47:08.639Z,24.77
2023-01-03T21:49:35.684Z,22.13
2023-01-03T21:52:02.740Z,24.10
2023-01-03T21:54:29.866Z,18.77
2023-01-03T21:56:57.144Z,20.07
2023-01-03T21:59:24.241Z,24.50
2023-01-03T22:02:10.281Z,19.00
2023-01-03T22:04:37.457Z,21.53
2023-01-03T22:07:04.511Z,18.67
2023-01-03T22:10:07.613Z,19.60
2023-01-03T22:12:37.041Z,20.57
2023-01-03T22:15:04.851Z,17.47
2023-01-03T22:17:37.023Z,22.07
2023-01-03T22:20:07.534Z,21.73
2023-01-03T22:22:35.213Z,19.90
2023-01-03T22:25:02.289Z,18.20
2023-01-03T22:27:29.395Z,15.80
2023-01-03T22:29:56.478Z,18.40
2023-01-03T22:32:25.639Z,22.87
2023-01-03T22:34:53.257Z,20.20
2023-01-03T22:37:20.635Z,17.87
2023-01-03T22:39:47.742Z,20.73
2023-01-03T22:42:19.512Z,20.73
2023-01-03T22:44:47.720Z,19.67
2023-01-03T22:47:15.810Z,19.57
2023-01-03T22:49:45.031Z,17.33
2023-01-03T22:52:12.169Z,21.73
2023-01-03T22:54:39.390Z,20.30
2023-01-03T22:57:06.619Z,21.43
2023-01-03T22:59:33.908Z,21.37
2023-01-03T23:02:01.405Z,18.07
2023-01-03T23:04:28.893Z,21.17
2023-01-03T23:06:56.290Z,19.60
2023-01-03T23:09:23.893Z,15.13
2023-01-03T23:12:10.161Z,16.53
2023-01-03T23:14:37.288Z,16.97
2023-01-03T23:17:23.147Z,23.43
2023-01-03T23:19:50.480Z,18.00
2023-01-03T23:22:17.556Z,17.77
2023-01-03T23:24:44.761Z,15.13
2023-01-03T23:27:11.814Z,15.57
2023-01-03T23:29:38.983Z,19.00
2023-01-03T23:32:06.249Z,17.13
2023-01-03T23:34:33.399Z,18.43
2023-01-03T23:37:00.614Z,14.00
2023-01-03T23:39:27.812Z,16.73
2023-01-03T23:41:55.135Z,15.43
2023-01-03T23:44:22.184Z,17.07
2023-01-03T23:46:49.259Z,15.30
2023-01-03T23:49:16.378Z,20.73
2023-01-03T23:51:43.680Z,18.93
2023-01-03T23:54:11.250Z,18.50
2023-01-03T23:56:38.766Z,16.10
2023-01-03T23:59:06.029Z,17.10
